sensor_id;sensor_type;location;lat;lon;timestamp;P1;durP1;ratioP1;P2;durP2;ratioP2
41799;SDS011;27468;47.460;19.034;2023-04-02T00:01:53;1.75;;;0.90;;
41799;SDS011;27468;47.460;19.034;2023-04-02T00:04:19;1.80;;;0.80;;
41799;SDS011;27468;47.460;19.034;2023-04-02T00:07:32;1.60;;;0.90;;
41799;SDS011;27468;47.460;19.034;2023-04-02T00:09:54;2.15;;;0.63;;
41799;SDS011;27468;47.460;19.034;2023-04-02T00:12:20;1.05;;;0.90;;
41799;SDS011;27468;47.460;19.034;2023-04-02T00:14:53;1.42;;;0.68;;
41799;SDS011;27468;47.460;19.034;2023-04-02T00:17:20;0.80;;;0.70;;
41799;SDS011;27468;47.460;19.034;2023-04-02T00:22:32;0.75;;;0.73;;
41799;SDS011;27468;47.460;19.034;2023-04-02T00:24:59;1.05;;;0.85;;
41799;SDS011;27468;47.460;19.034;2023-04-02T00:27:29;0.95;;;0.88;;
41799;SDS011;27468;47.460;19.034;2023-04-02T00:29:56;1.20;;;0.73;;
41799;SDS011;27468;47.460;19.034;2023-04-02T00:32:26;1.08;;;0.77;;
41799;SDS011;27468;47.460;19.034;2023-04-02T00:34:55;2.15;;;0.80;;
41799;SDS011;27468;47.460;19.034;2023-04-02T00:37:22;1.67;;;0.80;;
41799;SDS011;27468;47.460;19.034;2023-04-02T00:39:52;1.10;;;0.80;;
41799;SDS011;27468;47.460;19.034;2023-04-02T00:42:22;2.17;;;0.80;;
41799;SDS011;27468;47.460;19.034;2023-04-02T00:44:49;1.50;;;0.90;;
41799;SDS011;27468;47.460;19.034;2023-04-02T00:47:22;1.00;;;0.80;;
41799;SDS011;27468;47.460;19.034;2023-04-02T00:52:38;1.13;;;0.80;;
41799;SDS011;27468;47.460;19.034;2023-04-02T00:55:16;0.77;;;0.65;;
41799;SDS011;27468;47.460;19.034;2023-04-02T00:57:48;1.42;;;0.63;;
41799;SDS011;27468;47.460;19.034;2023-04-02T01:00:19;1.15;;;0.80;;
41799;SDS011;27468;47.460;19.034;2023-04-02T01:14:34;0.70;;;0.70;;
41799;SDS011;27468;47.460;19.034;2023-04-02T01:22:44;1.25;;;0.80;;
41799;SDS011;27468;47.460;19.034;2023-04-02T01:25:25;1.20;;;0.90;;
41799;SDS011;27468;47.460;19.034;2023-04-02T01:28:18;1.27;;;0.88;;
41799;SDS011;27468;47.460;19.034;2023-04-02T01:30:46;0.68;;;0.68;;
41799;SDS011;27468;47.460;19.034;2023-04-02T01:33:17;0.70;;;0.70;;
41799;SDS011;27468;47.460;19.034;2023-04-02T01:35:46;0.85;;;0.70;;
41799;SDS011;27468;47.460;19.034;2023-04-02T01:38:29;0.88;;;0.70;;
41799;SDS011;27468;47.460;19.034;2023-04-02T01:41:03;1.35;;;0.70;;
41799;SDS011;27468;47.460;19.034;2023-04-02T01:46:22;0.60;;;0.60;;
41799;SDS011;27468;47.460;19.034;2023-04-02T01:48:56;0.93;;;0.82;;
41799;SDS011;27468;47.460;19.034;2023-04-02T01:51:28;1.40;;;0.80;;
41799;SDS011;27468;47.460;19.034;2023-04-02T01:53:55;1.02;;;0.80;;
41799;SDS011;27468;47.460;19.034;2023-04-02T01:56:25;0.82;;;0.65;;
41799;SDS011;27468;47.460;19.034;2023-04-02T01:58:52;0.63;;;0.60;;
41799;SDS011;27468;47.460;19.034;2023-04-02T02:01:18;0.70;;;0.70;;
41799;SDS011;27468;47.460;19.034;2023-04-02T02:03:48;0.80;;;0.70;;
41799;SDS011;27468;47.460;19.034;2023-04-02T02:06:15;0.70;;;0.70;;
41799;SDS011;27468;47.460;19.034;2023-04-02T02:08:49;0.70;;;0.70;;
41799;SDS011;27468;47.460;19.034;2023-04-02T02:11:28;0.90;;;0.77;;
41799;SDS011;27468;47.460;19.034;2023-04-02T02:13:56;1.02;;;0.70;;
41799;SDS011;27468;47.460;19.034;2023-04-02T02:16:24;0.75;;;0.75;;
41799;SDS011;27468;47.460;19.034;2023-04-02T02:18:52;1.10;;;0.70;;
41799;SDS011;27468;47.460;19.034;2023-04-02T02:21:43;0.75;;;0.75;;
41799;SDS011;27468;47.460;19.034;2023-04-02T02:24:26;0.73;;;0.73;;
41799;SDS011;27468;47.460;19.034;2023-04-02T02:30:03;0.82;;;0.77;;
41799;SDS011;27468;47.460;19.034;2023-04-02T02:32:38;1.25;;;0.80;;
41799;SDS011;27468;47.460;19.034;2023-04-02T02:40:55;0.80;;;0.80;;
41799;SDS011;27468;47.460;19.034;2023-04-02T02:43:24;1.08;;;0.98;;
41799;SDS011;27468;47.460;19.034;2023-04-02T02:45:51;1.45;;;0.80;;
41799;SDS011;27468;47.460;19.034;2023-04-02T02:48:19;1.08;;;0.90;;
41799;SDS011;27468;47.460;19.034;2023-04-02T02:50:50;0.90;;;0.73;;
41799;SDS011;27468;47.460;19.034;2023-04-02T02:53:22;1.10;;;1.00;;
41799;SDS011;27468;47.460;19.034;2023-04-02T02:55:49;2.47;;;1.15;;
41799;SDS011;27468;47.460;19.034;2023-04-02T03:00:52;1.00;;;0.90;;
41799;SDS011;27468;47.460;19.034;2023-04-02T03:03:19;0.90;;;0.88;;
41799;SDS011;27468;47.460;19.034;2023-04-02T03:05:49;2.33;;;1.08;;
41799;SDS011;27468;47.460;19.034;2023-04-02T03:08:25;1.17;;;1.00;;
41799;SDS011;27468;47.460;19.034;2023-04-02T03:11:46;1.17;;;1.10;;
41799;SDS011;27468;47.460;19.034;2023-04-02T03:13:52;1.00;;;0.90;;
41799;SDS011;27468;47.460;19.034;2023-04-02T03:16:27;1.70;;;1.13;;
41799;SDS011;27468;47.460;19.034;2023-04-02T03:27:39;1.45;;;1.35;;
41799;SDS011;27468;47.460;19.034;2023-04-02T03:32:46;1.10;;;1.00;;
41799;SDS011;27468;47.460;19.034;2023-04-02T03:35:31;1.35;;;1.20;;
41799;SDS011;27468;47.460;19.034;2023-04-02T03:41:04;1.50;;;1.00;;
41799;SDS011;27468;47.460;19.034;2023-04-02T03:43:39;1.20;;;1.10;;
41799;SDS011;27468;47.460;19.034;2023-04-02T03:48:53;1.33;;;1.00;;
41799;SDS011;27468;47.460;19.034;2023-04-02T03:54:15;0.90;;;0.85;;
41799;SDS011;27468;47.460;19.034;2023-04-02T03:56:41;1.30;;;0.98;;
41799;SDS011;27468;47.460;19.034;2023-04-02T04:02:09;1.05;;;0.85;;
41799;SDS011;27468;47.460;19.034;2023-04-02T04:04:40;1.05;;;0.90;;
41799;SDS011;27468;47.460;19.034;2023-04-02T04:07:10;1.08;;;0.82;;
41799;SDS011;27468;47.460;19.034;2023-04-02T04:09:44;1.67;;;1.08;;
41799;SDS011;27468;47.460;19.034;2023-04-02T04:15:15;1.67;;;0.90;;
41799;SDS011;27468;47.460;19.034;2023-04-02T04:20:28;1.20;;;1.05;;
41799;SDS011;27468;47.460;19.034;2023-04-02T04:25:55;1.52;;;1.00;;
41799;SDS011;27468;47.460;19.034;2023-04-02T04:31:19;1.00;;;0.80;;
41799;SDS011;27468;47.460;19.034;2023-04-02T04:33:54;0.93;;;0.80;;
41799;SDS011;27468;47.460;19.034;2023-04-02T04:36:30;1.30;;;1.00;;
41799;SDS011;27468;47.460;19.034;2023-04-02T04:39:04;1.42;;;0.88;;
41799;SDS011;27468;47.460;19.034;2023-04-02T04:41:38;1.05;;;0.90;;
41799;SDS011;27468;47.460;19.034;2023-04-02T04:49:32;1.05;;;0.82;;
41799;SDS011;27468;47.460;19.034;2023-04-02T04:52:18;1.27;;;0.70;;
41799;SDS011;27468;47.460;19.034;2023-04-02T04:54:47;0.90;;;0.88;;
41799;SDS011;27468;47.460;19.034;2023-04-02T04:57:30;1.00;;;0.90;;
41799;SDS011;27468;47.460;19.034;2023-04-02T05:00:05;1.13;;;0.98;;
41799;SDS011;27468;47.460;19.034;2023-04-02T05:03:29;1.20;;;1.10;;
41799;SDS011;27468;47.460;19.034;2023-04-02T05:05:31;1.27;;;1.00;;
41799;SDS011;27468;47.460;19.034;2023-04-02T05:08:11;1.10;;;0.77;;
41799;SDS011;27468;47.460;19.034;2023-04-02T05:21:23;1.15;;;0.90;;
41799;SDS011;27468;47.460;19.034;2023-04-02T05:27:01;1.13;;;0.90;;
41799;SDS011;27468;47.460;19.034;2023-04-02T05:29:36;1.10;;;1.00;;
41799;SDS011;27468;47.460;19.034;2023-04-02T05:32:19;1.33;;;1.20;;
41799;SDS011;27468;47.460;19.034;2023-04-02T05:34:53;0.82;;;0.82;;
41799;SDS011;27468;47.460;19.034;2023-04-02T05:37:20;0.85;;;0.73;;
41799;SDS011;27468;47.460;19.034;2023-04-02T05:39:55;1.15;;;1.05;;
41799;SDS011;27468;47.460;19.034;2023-04-02T05:42:23;1.08;;;0.80;;
41799;SDS011;27468;47.460;19.034;2023-04-02T05:45:05;1.02;;;0.90;;
41799;SDS011;27468;47.460;19.034;2023-04-02T05:47:43;0.88;;;0.85;;
41799;SDS011;27468;47.460;19.034;2023-04-02T05:50:26;1.05;;;0.95;;
41799;SDS011;27468;47.460;19.034;2023-04-02T05:53:00;1.40;;;0.80;;
41799;SDS011;27468;47.460;19.034;2023-04-02T05:58:21;1.00;;;0.90;;
41799;SDS011;27468;47.460;19.034;2023-04-02T06:06:32;1.33;;;0.70;;
41799;SDS011;27468;47.460;19.034;2023-04-02T06:09:12;0.85;;;0.68;;
41799;SDS011;27468;47.460;19.034;2023-04-02T06:11:49;1.08;;;0.70;;
41799;SDS011;27468;47.460;19.034;2023-04-02T06:14:20;0.90;;;0.80;;
41799;SDS011;27468;47.460;19.034;2023-04-02T06:16:45;0.80;;;0.70;;
41799;SDS011;27468;47.460;19.034;2023-04-02T06:19:15;0.95;;;0.77;;
41799;SDS011;27468;47.460;19.034;2023-04-02T06:21:47;1.80;;;1.00;;
41799;SDS011;27468;47.460;19.034;2023-04-02T06:24:16;1.60;;;1.23;;
41799;SDS011;27468;47.460;19.034;2023-04-02T06:26:50;1.88;;;1.00;;
41799;SDS011;27468;47.460;19.034;2023-04-02T06:31:59;1.15;;;0.85;;
41799;SDS011;27468;47.460;19.034;2023-04-02T06:34:26;0.90;;;0.80;;
41799;SDS011;27468;47.460;19.034;2023-04-02T06:36:54;1.98;;;1.20;;
41799;SDS011;27468;47.460;19.034;2023-04-02T06:39:23;0.82;;;0.80;;
41799;SDS011;27468;47.460;19.034;2023-04-02T06:41:53;1.20;;;1.00;;
41799;SDS011;27468;47.460;19.034;2023-04-02T06:44:24;0.98;;;0.88;;
41799;SDS011;27468;47.460;19.034;2023-04-02T06:46:56;1.08;;;0.70;;
41799;SDS011;27468;47.460;19.034;2023-04-02T06:51:59;1.55;;;1.20;;
41799;SDS011;27468;47.460;19.034;2023-04-02T06:54:27;1.33;;;1.08;;
41799;SDS011;27468;47.460;19.034;2023-04-02T06:56:54;2.63;;;1.15;;
41799;SDS011;27468;47.460;19.034;2023-04-02T06:59:22;1.55;;;1.45;;
41799;SDS011;27468;47.460;19.034;2023-04-02T07:01:50;1.90;;;1.30;;
41799;SDS011;27468;47.460;19.034;2023-04-02T07:04:19;1.90;;;1.30;;
41799;SDS011;27468;47.460;19.034;2023-04-02T07:06:45;1.70;;;1.05;;
41799;SDS011;27468;47.460;19.034;2023-04-02T07:09:11;1.33;;;1.23;;
41799;SDS011;27468;47.460;19.034;2023-04-02T07:11:37;1.73;;;1.20;;
41799;SDS011;27468;47.460;19.034;2023-04-02T07:14:03;2.42;;;1.23;;
41799;SDS011;27468;47.460;19.034;2023-04-02T07:16:30;1.52;;;1.02;;
41799;SDS011;27468;47.460;19.034;2023-04-02T07:18:57;1.45;;;1.23;;
41799;SDS011;27468;47.460;19.034;2023-04-02T07:21:23;1.50;;;1.40;;
41799;SDS011;27468;47.460;19.034;2023-04-02T07:23:50;2.17;;;1.33;;
41799;SDS011;27468;47.460;19.034;2023-04-02T07:26:17;1.35;;;1.13;;
41799;SDS011;27468;47.460;19.034;2023-04-02T07:28:46;1.67;;;1.33;;
41799;SDS011;27468;47.460;19.034;2023-04-02T07:31:15;1.58;;;1.40;;
41799;SDS011;27468;47.460;19.034;2023-04-02T07:33:43;1.75;;;1.27;;
41799;SDS011;27468;47.460;19.034;2023-04-02T07:36:12;1.70;;;1.30;;
41799;SDS011;27468;47.460;19.034;2023-04-02T07:38:39;1.88;;;1.38;;
41799;SDS011;27468;47.460;19.034;2023-04-02T07:41:04;1.40;;;1.23;;
41799;SDS011;27468;47.460;19.034;2023-04-02T07:43:30;1.50;;;1.40;;
41799;SDS011;27468;47.460;19.034;2023-04-02T07:45:56;2.83;;;1.60;;
41799;SDS011;27468;47.460;19.034;2023-04-02T07:48:22;1.77;;;1.33;;
41799;SDS011;27468;47.460;19.034;2023-04-02T07:50:47;2.53;;;1.20;;
41799;SDS011;27468;47.460;19.034;2023-04-02T07:53:32;1.35;;;1.20;;
41799;SDS011;27468;47.460;19.034;2023-04-02T07:56:00;2.20;;;1.30;;
41799;SDS011;27468;47.460;19.034;2023-04-02T07:58:27;1.67;;;1.58;;
41799;SDS011;27468;47.460;19.034;2023-04-02T08:00:53;1.50;;;1.40;;
41799;SDS011;27468;47.460;19.034;2023-04-02T08:03:19;2.67;;;1.50;;
41799;SDS011;27468;47.460;19.034;2023-04-02T08:05:51;2.47;;;1.60;;
41799;SDS011;27468;47.460;19.034;2023-04-02T08:08:19;2.47;;;1.90;;
41799;SDS011;27468;47.460;19.034;2023-04-02T08:10:45;2.55;;;2.05;;
41799;SDS011;27468;47.460;19.034;2023-04-02T08:13:12;2.58;;;1.60;;
41799;SDS011;27468;47.460;19.034;2023-04-02T08:15:39;1.90;;;1.30;;
41799;SDS011;27468;47.460;19.034;2023-04-02T08:18:04;2.30;;;1.73;;
41799;SDS011;27468;47.460;19.034;2023-04-02T08:20:30;2.00;;;1.60;;
41799;SDS011;27468;47.460;19.034;2023-04-02T08:22:55;1.85;;;1.58;;
41799;SDS011;27468;47.460;19.034;2023-04-02T08:25:22;1.63;;;1.40;;
41799;SDS011;27468;47.460;19.034;2023-04-02T08:27:48;1.52;;;1.25;;
41799;SDS011;27468;47.460;19.034;2023-04-02T08:30:14;2.95;;;1.50;;
41799;SDS011;27468;47.460;19.034;2023-04-02T08:32:41;3.85;;;1.73;;
41799;SDS011;27468;47.460;19.034;2023-04-02T08:35:07;2.25;;;1.50;;
41799;SDS011;27468;47.460;19.034;2023-04-02T08:37:35;2.08;;;1.40;;
41799;SDS011;27468;47.460;19.034;2023-04-02T08:40:00;1.98;;;1.63;;
41799;SDS011;27468;47.460;19.034;2023-04-02T08:47:37;1.92;;;1.23;;
41799;SDS011;27468;47.460;19.034;2023-04-02T08:52:37;1.58;;;1.30;;
41799;SDS011;27468;47.460;19.034;2023-04-02T08:55:04;2.03;;;1.50;;
41799;SDS011;27468;47.460;19.034;2023-04-02T09:03:29;1.45;;;1.23;;
41799;SDS011;27468;47.460;19.034;2023-04-02T09:05:36;1.33;;;1.23;;
41799;SDS011;27468;47.460;19.034;2023-04-02T09:08:24;1.60;;;1.35;;
41799;SDS011;27468;47.460;19.034;2023-04-02T09:13:26;2.30;;;1.67;;
41799;SDS011;27468;47.460;19.034;2023-04-02T09:16:01;2.47;;;1.58;;
41799;SDS011;27468;47.460;19.034;2023-04-02T09:18:32;1.83;;;1.40;;
41799;SDS011;27468;47.460;19.034;2023-04-02T09:20:59;1.30;;;1.20;;
41799;SDS011;27468;47.460;19.034;2023-04-02T09:23:37;1.65;;;1.30;;
41799;SDS011;27468;47.460;19.034;2023-04-02T09:26:10;1.42;;;1.30;;
41799;SDS011;27468;47.460;19.034;2023-04-02T09:28:45;1.42;;;1.30;;
41799;SDS011;27468;47.460;19.034;2023-04-02T09:31:16;1.90;;;1.50;;
41799;SDS011;27468;47.460;19.034;2023-04-02T09:33:46;1.98;;;1.50;;
41799;SDS011;27468;47.460;19.034;2023-04-02T09:39:23;1.65;;;1.55;;
41799;SDS011;27468;47.460;19.034;2023-04-02T09:41:45;1.60;;;1.50;;
41799;SDS011;27468;47.460;19.034;2023-04-02T09:44:13;2.03;;;1.77;;
41799;SDS011;27468;47.460;19.034;2023-04-02T09:47:00;1.50;;;1.27;;
41799;SDS011;27468;47.460;19.034;2023-04-02T09:49:37;1.95;;;1.50;;
41799;SDS011;27468;47.460;19.034;2023-04-02T09:52:11;1.92;;;1.50;;
41799;SDS011;27468;47.460;19.034;2023-04-02T09:54:44;3.00;;;2.33;;
41799;SDS011;27468;47.460;19.034;2023-04-02T09:57:22;2.40;;;1.70;;
41799;SDS011;27468;47.460;19.034;2023-04-02T10:00:13;2.05;;;1.70;;
41799;SDS011;27468;47.460;19.034;2023-04-02T10:02:42;2.13;;;1.67;;
41799;SDS011;27468;47.460;19.034;2023-04-02T10:05:20;2.08;;;1.70;;
41799;SDS011;27468;47.460;19.034;2023-04-02T10:07:50;2.60;;;2.13;;
41799;SDS011;27468;47.460;19.034;2023-04-02T10:12:44;2.10;;;1.90;;
41799;SDS011;27468;47.460;19.034;2023-04-02T10:15:16;2.10;;;1.83;;
41799;SDS011;27468;47.460;19.034;2023-04-02T10:17:46;2.38;;;1.85;;
41799;SDS011;27468;47.460;19.034;2023-04-02T10:20:24;2.10;;;1.90;;
41799;SDS011;27468;47.460;19.034;2023-04-02T10:22:53;2.20;;;1.80;;
41799;SDS011;27468;47.460;19.034;2023-04-02T10:25:20;2.83;;;1.90;;
41799;SDS011;27468;47.460;19.034;2023-04-02T10:30:49;1.92;;;1.73;;
41799;SDS011;27468;47.460;19.034;2023-04-02T10:33:29;2.28;;;2.08;;
41799;SDS011;27468;47.460;19.034;2023-04-02T10:42:08;2.25;;;1.90;;
41799;SDS011;27468;47.460;19.034;2023-04-02T10:47:32;2.20;;;2.00;;
41799;SDS011;27468;47.460;19.034;2023-04-02T10:53:13;2.17;;;1.98;;
41799;SDS011;27468;47.460;19.034;2023-04-02T10:55:55;2.08;;;1.88;;
41799;SDS011;27468;47.460;19.034;2023-04-02T10:58:29;2.13;;;1.92;;
41799;SDS011;27468;47.460;19.034;2023-04-02T11:00:57;2.42;;;1.90;;
41799;SDS011;27468;47.460;19.034;2023-04-02T11:06:40;2.60;;;1.90;;
41799;SDS011;27468;47.460;19.034;2023-04-02T11:09:03;2.08;;;1.70;;
41799;SDS011;27468;47.460;19.034;2023-04-02T11:11:34;2.25;;;2.05;;
41799;SDS011;27468;47.460;19.034;2023-04-02T11:14:04;2.17;;;1.98;;
41799;SDS011;27468;47.460;19.034;2023-04-02T11:16:33;2.20;;;2.00;;
41799;SDS011;27468;47.460;19.034;2023-04-02T11:24:15;1.83;;;1.50;;
41799;SDS011;27468;47.460;19.034;2023-04-02T11:29:38;1.50;;;1.40;;
41799;SDS011;27468;47.460;19.034;2023-04-02T11:42:36;1.85;;;1.40;;
41799;SDS011;27468;47.460;19.034;2023-04-02T11:50:30;1.75;;;1.42;;
41799;SDS011;27468;47.460;19.034;2023-04-02T11:53:04;1.60;;;1.50;;
41799;SDS011;27468;47.460;19.034;2023-04-02T11:55:43;1.77;;;1.58;;
41799;SDS011;27468;47.460;19.034;2023-04-02T11:58:23;1.60;;;1.40;;
41799;SDS011;27468;47.460;19.034;2023-04-02T12:11:44;1.88;;;1.20;;
41799;SDS011;27468;47.460;19.034;2023-04-02T12:17:29;1.42;;;1.33;;
41799;SDS011;27468;47.460;19.034;2023-04-02T12:20:13;1.83;;;1.58;;
41799;SDS011;27468;47.460;19.034;2023-04-02T12:22:48;1.70;;;1.40;;
41799;SDS011;27468;47.460;19.034;2023-04-02T12:25:34;2.28;;;1.58;;
41799;SDS011;27468;47.460;19.034;2023-04-02T12:30:33;1.70;;;1.60;;
41799;SDS011;27468;47.460;19.034;2023-04-02T12:35:43;1.83;;;1.50;;
41799;SDS011;27468;47.460;19.034;2023-04-02T12:38:24;2.10;;;1.90;;
41799;SDS011;27468;47.460;19.034;2023-04-02T12:40:58;2.05;;;1.70;;
41799;SDS011;27468;47.460;19.034;2023-04-02T12:43:30;1.90;;;1.60;;
41799;SDS011;27468;47.460;19.034;2023-04-02T12:45:58;2.22;;;1.70;;
41799;SDS011;27468;47.460;19.034;2023-04-02T12:48:26;1.52;;;1.42;;
41799;SDS011;27468;47.460;19.034;2023-04-02T12:50:53;1.38;;;1.27;;
41799;SDS011;27468;47.460;19.034;2023-04-02T12:55:51;1.35;;;1.00;;
41799;SDS011;27468;47.460;19.034;2023-04-02T13:01:07;1.50;;;1.40;;
41799;SDS011;27468;47.460;19.034;2023-04-02T13:03:37;1.65;;;1.50;;
41799;SDS011;27468;47.460;19.034;2023-04-02T13:06:03;1.30;;;1.23;;
41799;SDS011;27468;47.460;19.034;2023-04-02T13:08:45;1.00;;;0.95;;
41799;SDS011;27468;47.460;19.034;2023-04-02T13:11:10;1.10;;;1.00;;
41799;SDS011;27468;47.460;19.034;2023-04-02T13:13:36;1.30;;;1.20;;
41799;SDS011;27468;47.460;19.034;2023-04-02T13:16:05;0.90;;;0.85;;
41799;SDS011;27468;47.460;19.034;2023-04-02T13:18:31;1.70;;;0.90;;
41799;SDS011;27468;47.460;19.034;2023-04-02T13:20:59;1.40;;;1.00;;
41799;SDS011;27468;47.460;19.034;2023-04-02T13:25:55;2.08;;;1.08;;
41799;SDS011;27468;47.460;19.034;2023-04-02T13:28:22;1.40;;;1.20;;
41799;SDS011;27468;47.460;19.034;2023-04-02T13:30:48;1.35;;;1.25;;
41799;SDS011;27468;47.460;19.034;2023-04-02T13:33:14;2.50;;;1.25;;
41799;SDS011;27468;47.460;19.034;2023-04-02T13:35:40;1.50;;;1.40;;
41799;SDS011;27468;47.460;19.034;2023-04-02T13:38:07;2.35;;;1.40;;
41799;SDS011;27468;47.460;19.034;2023-04-02T13:40:33;1.30;;;1.20;;
41799;SDS011;27468;47.460;19.034;2023-04-02T13:43:01;1.33;;;1.23;;
41799;SDS011;27468;47.460;19.034;2023-04-02T13:45:28;1.42;;;1.33;;
41799;SDS011;27468;47.460;19.034;2023-04-02T13:47:57;1.90;;;1.80;;
41799;SDS011;27468;47.460;19.034;2023-04-02T13:50:25;1.10;;;1.00;;
41799;SDS011;27468;47.460;19.034;2023-04-02T13:52:51;1.65;;;0.82;;
41799;SDS011;27468;47.460;19.034;2023-04-02T13:55:21;2.28;;;1.00;;
41799;SDS011;27468;47.460;19.034;2023-04-02T13:57:49;1.30;;;1.05;;
41799;SDS011;27468;47.460;19.034;2023-04-02T14:00:15;1.35;;;1.20;;
41799;SDS011;27468;47.460;19.034;2023-04-02T14:02:42;1.70;;;1.30;;
41799;SDS011;27468;47.460;19.034;2023-04-02T14:10:51;1.40;;;1.25;;
41799;SDS011;27468;47.460;19.034;2023-04-02T14:25:01;1.63;;;1.30;;
41799;SDS011;27468;47.460;19.034;2023-04-02T14:27:33;2.30;;;1.38;;
41799;SDS011;27468;47.460;19.034;2023-04-02T14:30:22;1.60;;;1.50;;
41799;SDS011;27468;47.460;19.034;2023-04-02T14:43:42;3.05;;;2.45;;
41799;SDS011;27468;47.460;19.034;2023-04-02T14:46:16;2.80;;;1.98;;
41799;SDS011;27468;47.460;19.034;2023-04-02T14:51:34;2.83;;;2.60;;
41799;SDS011;27468;47.460;19.034;2023-04-02T14:56:53;3.60;;;2.70;;
41799;SDS011;27468;47.460;19.034;2023-04-02T14:59:41;3.08;;;2.63;;
41799;SDS011;27468;47.460;19.034;2023-04-02T15:02:22;3.58;;;2.78;;
41799;SDS011;27468;47.460;19.034;2023-04-02T15:05:06;3.90;;;2.70;;
41799;SDS011;27468;47.460;19.034;2023-04-02T15:08:26;3.38;;;2.45;;
41799;SDS011;27468;47.460;19.034;2023-04-02T15:10:34;3.40;;;1.98;;
41799;SDS011;27468;47.460;19.034;2023-04-02T15:13:24;2.60;;;2.08;;
41799;SDS011;27468;47.460;19.034;2023-04-02T15:16:02;2.47;;;2.22;;
41799;SDS011;27468;47.460;19.034;2023-04-02T15:18:32;2.08;;;1.60;;
41799;SDS011;27468;47.460;19.034;2023-04-02T15:29:05;2.53;;;1.48;;
41799;SDS011;27468;47.460;19.034;2023-04-02T15:31:44;2.47;;;2.15;;
41799;SDS011;27468;47.460;19.034;2023-04-02T15:34:29;3.30;;;2.28;;
41799;SDS011;27468;47.460;19.034;2023-04-02T15:42:18;5.05;;;3.00;;
41799;SDS011;27468;47.460;19.034;2023-04-02T16:12:22;9.50;;;7.32;;
41799;SDS011;27468;47.460;19.034;2023-04-02T16:14:51;13.77;;;11.63;;
41799;SDS011;27468;47.460;19.034;2023-04-02T16:17:25;14.60;;;12.18;;
41799;SDS011;27468;47.460;19.034;2023-04-02T16:19:56;11.05;;;7.88;;
41799;SDS011;27468;47.460;19.034;2023-04-02T16:22:29;7.68;;;5.22;;
41799;SDS011;27468;47.460;19.034;2023-04-02T16:25:16;7.45;;;5.20;;
41799;SDS011;27468;47.460;19.034;2023-04-02T16:33:29;7.20;;;5.28;;
41799;SDS011;27468;47.460;19.034;2023-04-02T16:47:09;10.80;;;8.55;;
41799;SDS011;27468;47.460;19.034;2023-04-02T17:00:42;14.60;;;10.07;;
41799;SDS011;27468;47.460;19.034;2023-04-02T17:05:58;12.25;;;8.77;;
41799;SDS011;27468;47.460;19.034;2023-04-02T17:08:30;13.48;;;8.30;;
41799;SDS011;27468;47.460;19.034;2023-04-02T17:16:08;13.43;;;9.27;;
41799;SDS011;27468;47.460;19.034;2023-04-02T17:18:36;4.47;;;3.00;;
41799;SDS011;27468;47.460;19.034;2023-04-02T17:21:05;9.82;;;8.82;;
41799;SDS011;27468;47.460;19.034;2023-04-02T17:23:43;6.70;;;4.88;;
41799;SDS011;27468;47.460;19.034;2023-04-02T17:26:13;3.50;;;2.65;;
41799;SDS011;27468;47.460;19.034;2023-04-02T17:28:41;6.43;;;4.40;;
41799;SDS011;27468;47.460;19.034;2023-04-02T17:31:17;4.35;;;3.30;;
41799;SDS011;27468;47.460;19.034;2023-04-02T17:33:43;4.00;;;3.60;;
41799;SDS011;27468;47.460;19.034;2023-04-02T17:36:15;3.60;;;2.75;;
41799;SDS011;27468;47.460;19.034;2023-04-02T17:39:06;5.35;;;3.70;;
41799;SDS011;27468;47.460;19.034;2023-04-02T17:41:44;2.20;;;1.80;;
41799;SDS011;27468;47.460;19.034;2023-04-02T17:52:43;2.00;;;1.63;;
41799;SDS011;27468;47.460;19.034;2023-04-02T17:58:13;1.85;;;1.65;;
41799;SDS011;27468;47.460;19.034;2023-04-02T18:01:03;5.38;;;3.72;;
41799;SDS011;27468;47.460;19.034;2023-04-02T18:06:58;6.22;;;4.05;;
41799;SDS011;27468;47.460;19.034;2023-04-02T18:09:35;4.72;;;3.30;;
41799;SDS011;27468;47.460;19.034;2023-04-02T18:14:51;6.65;;;5.70;;
41799;SDS011;27468;47.460;19.034;2023-04-02T18:31:52;3.83;;;2.78;;
41799;SDS011;27468;47.460;19.034;2023-04-02T18:37:09;4.60;;;2.88;;
41799;SDS011;27468;47.460;19.034;2023-04-02T18:42:51;4.75;;;3.38;;
41799;SDS011;27468;47.460;19.034;2023-04-02T18:51:00;4.18;;;3.05;;
41799;SDS011;27468;47.460;19.034;2023-04-02T18:53:28;4.82;;;3.53;;
41799;SDS011;27468;47.460;19.034;2023-04-02T18:56:03;4.82;;;3.55;;
41799;SDS011;27468;47.460;19.034;2023-04-02T19:00:57;4.82;;;3.60;;
41799;SDS011;27468;47.460;19.034;2023-04-02T19:03:30;5.18;;;3.58;;
41799;SDS011;27468;47.460;19.034;2023-04-02T19:06:00;4.22;;;3.03;;
41799;SDS011;27468;47.460;19.034;2023-04-02T19:11:18;4.03;;;2.35;;
41799;SDS011;27468;47.460;19.034;2023-04-02T19:14:00;4.50;;;2.80;;
41799;SDS011;27468;47.460;19.034;2023-04-02T19:19:25;5.47;;;2.40;;
41799;SDS011;27468;47.460;19.034;2023-04-02T19:29:52;4.88;;;2.95;;
41799;SDS011;27468;47.460;19.034;2023-04-02T19:35:30;3.97;;;2.70;;
41799;SDS011;27468;47.460;19.034;2023-04-02T19:38:09;5.15;;;3.10;;
41799;SDS011;27468;47.460;19.034;2023-04-02T19:41:10;4.60;;;3.15;;
41799;SDS011;27468;47.460;19.034;2023-04-02T19:43:45;3.90;;;2.78;;
41799;SDS011;27468;47.460;19.034;2023-04-02T19:46:11;4.78;;;2.80;;
41799;SDS011;27468;47.460;19.034;2023-04-02T19:48:42;4.00;;;3.00;;
41799;SDS011;27468;47.460;19.034;2023-04-02T19:51:17;4.30;;;2.78;;
41799;SDS011;27468;47.460;19.034;2023-04-02T19:53:42;4.78;;;2.72;;
41799;SDS011;27468;47.460;19.034;2023-04-02T19:56:07;4.45;;;2.70;;
41799;SDS011;27468;47.460;19.034;2023-04-02T19:58:33;4.32;;;2.75;;
41799;SDS011;27468;47.460;19.034;2023-04-02T20:01:00;5.40;;;3.55;;
41799;SDS011;27468;47.460;19.034;2023-04-02T20:03:26;4.72;;;3.10;;
41799;SDS011;27468;47.460;19.034;2023-04-02T20:05:52;3.75;;;2.40;;
41799;SDS011;27468;47.460;19.034;2023-04-02T20:08:18;3.80;;;2.40;;
41799;SDS011;27468;47.460;19.034;2023-04-02T20:10:43;3.40;;;2.50;;
41799;SDS011;27468;47.460;19.034;2023-04-02T20:13:09;4.18;;;3.03;;
41799;SDS011;27468;47.460;19.034;2023-04-02T20:15:35;3.17;;;2.22;;
41799;SDS011;27468;47.460;19.034;2023-04-02T20:18:00;3.03;;;2.22;;
41799;SDS011;27468;47.460;19.034;2023-04-02T20:20:26;3.25;;;2.30;;
41799;SDS011;27468;47.460;19.034;2023-04-02T20:22:52;3.03;;;2.20;;
41799;SDS011;27468;47.460;19.034;2023-04-02T20:25:17;4.13;;;2.20;;
41799;SDS011;27468;47.460;19.034;2023-04-02T20:27:43;4.57;;;2.65;;
41799;SDS011;27468;47.460;19.034;2023-04-02T20:30:08;3.45;;;2.30;;
41799;SDS011;27468;47.460;19.034;2023-04-02T20:32:34;3.20;;;2.30;;
41799;SDS011;27468;47.460;19.034;2023-04-02T20:35:00;3.85;;;2.85;;
41799;SDS011;27468;47.460;19.034;2023-04-02T20:37:26;3.58;;;2.40;;
41799;SDS011;27468;47.460;19.034;2023-04-02T20:39:52;4.45;;;2.78;;
41799;SDS011;27468;47.460;19.034;2023-04-02T20:42:17;4.75;;;2.63;;
41799;SDS011;27468;47.460;19.034;2023-04-02T20:44:42;3.30;;;2.30;;
41799;SDS011;27468;47.460;19.034;2023-04-02T20:47:08;3.47;;;2.33;;
41799;SDS011;27468;47.460;19.034;2023-04-02T20:49:34;3.45;;;2.30;;
41799;SDS011;27468;47.460;19.034;2023-04-02T20:52:00;3.08;;;1.92;;
41799;SDS011;27468;47.460;19.034;2023-04-02T20:54:25;4.20;;;3.17;;
41799;SDS011;27468;47.460;19.034;2023-04-02T20:56:51;3.42;;;2.33;;
41799;SDS011;27468;47.460;19.034;2023-04-02T20:59:17;3.78;;;2.25;;
41799;SDS011;27468;47.460;19.034;2023-04-02T21:01:42;4.07;;;2.60;;
41799;SDS011;27468;47.460;19.034;2023-04-02T21:04:08;3.67;;;2.08;;
41799;SDS011;27468;47.460;19.034;2023-04-02T21:06:35;3.78;;;2.08;;